Time;durP1;ratioP1;P1;durP2;ratioP2;P2;SDS_P1;SDS_P2;PMS_P1;PMS_P2;Temp;Humidity;BMP_temperature;BMP_pressure;BME280_temperature;BME280_humidity;BME280_pressure;Samples;Min_cycle;Max_cycle;Signal;HPM_P1;HPM_P2
2022/12/13 00:01:23;;;;;;;96.88;37.72;;;-1.80;99.90;;;;;;5023312;28;20425;-86
2022/12/13 00:03:52;;;;;;;104.75;38.55;;;-1.80;99.90;;;;;;5007776;28;20193;-86
2022/12/13 00:06:18;;;;;;;103.75;40.60;;;-1.90;99.90;;;;;;5008587;28;20174;-86
2022/12/13 00:08:44;;;;;;;109.97;37.20;;;-1.90;99.90;;;;;;5025668;28;20526;-86
2022/12/13 00:11:14;;;;;;;98.97;39.60;;;-1.90;99.90;;;;;;5007807;28;20185;-87
2022/12/13 00:13:41;;;;;;;101.55;37.63;;;-1.90;99.90;;;;;;5008158;28;20193;-86
2022/12/13 00:16:11;;;;;;;104.72;37.67;;;-1.90;99.90;;;;;;5025172;28;20209;-87
2022/12/13 00:18:37;;;;;;;98.53;36.40;;;-1.90;99.90;;;;;;5023777;28;20221;-88
2022/12/13 00:21:05;;;;;;;99.90;34.47;;;-1.90;99.90;;;;;;5006727;28;20190;-87
2022/12/13 00:23:31;;;;;;;100.10;37.80;;;-2.00;99.90;;;;;;5025638;28;20189;-85
2022/12/13 00:26:02;;;;;;;97.47;37.70;;;-2.00;99.90;;;;;;5025500;28;20158;-87
2022/12/13 00:28:28;;;;;;;105.82;42.20;;;-2.00;99.90;;;;;;5025799;28;20738;-87
2022/12/13 00:30:59;;;;;;;109.80;42.10;;;-2.00;99.90;;;;;;5009057;28;20200;-87
2022/12/13 00:33:25;;;;;;;99.95;38.60;;;-2.00;99.90;;;;;;5007717;28;20404;-86
2022/12/13 00:36:00;;;;;;;106.17;36.93;;;-2.10;99.90;;;;;;5026022;28;20170;-86
2022/12/13 00:38:26;;;;;;;102.78;37.78;;;-2.10;99.90;;;;;;5009128;28;20400;-88
2022/12/13 00:40:52;;;;;;;98.80;33.53;;;-2.10;99.90;;;;;;5007340;28;20189;-88
2022/12/13 00:43:18;;;;;;;95.45;37.10;;;-2.00;99.90;;;;;;5024007;28;20444;-88
2022/12/13 00:45:44;;;;;;;103.00;33.90;;;-2.10;99.90;;;;;;5023901;28;20158;-88
2022/12/13 00:48:10;;;;;;;97.55;38.50;;;-2.10;99.90;;;;;;5025404;28;20409;-88
2022/12/13 00:50:37;;;;;;;103.57;38.23;;;-2.20;99.90;;;;;;5026152;28;20203;-87
2022/12/13 00:53:03;;;;;;;115.40;44.22;;;-2.20;99.90;;;;;;5027451;28;20177;-86
2022/12/13 00:55:30;;;;;;;100.93;41.50;;;-2.30;99.90;;;;;;5025773;28;20166;-87
2022/12/13 00:57:55;;;;;;;97.15;34.72;;;-2.30;99.90;;;;;;5026403;28;20185;-86
2022/12/13 01:00:22;;;;;;;102.33;37.10;;;-2.30;99.90;;;;;;5026242;28;20200;-88
2022/12/13 01:02:47;;;;;;;98.60;34.70;;;-2.40;99.90;;;;;;5026145;28;20198;-87
2022/12/13 01:05:13;;;;;;;97.07;33.93;;;-2.30;99.90;;;;;;5025314;28;20189;-86
2022/12/13 01:07:43;;;;;;;102.77;39.40;;;-2.30;99.90;;;;;;5026545;28;20166;-87
2022/12/13 01:10:10;;;;;;;99.22;35.53;;;-2.40;99.90;;;;;;5007710;28;20436;-87
2022/12/13 01:12:36;;;;;;;95.95;37.17;;;-2.40;99.90;;;;;;5026076;28;20173;-88
2022/12/13 01:15:03;;;;;;;96.53;33.47;;;-2.40;99.90;;;;;;5025747;28;20182;-87
2022/12/13 01:17:29;;;;;;;100.55;35.33;;;-2.40;99.90;;;;;;5025786;28;20405;-88
2022/12/13 01:19:55;;;;;;;103.47;41.17;;;-2.30;99.90;;;;;;5026502;28;20166;-88
2022/12/13 01:22:21;;;;;;;98.07;33.80;;;-2.30;99.90;;;;;;5026298;28;20174;-86
2022/12/13 01:24:46;;;;;;;96.87;34.70;;;-2.20;99.90;;;;;;5025315;28;20405;-87
2022/12/13 01:27:12;;;;;;;101.93;39.00;;;-2.30;99.90;;;;;;5026059;28;20226;-86
2022/12/13 01:29:38;;;;;;;101.03;35.77;;;-2.30;99.90;;;;;;5025752;28;20170;-86
2022/12/13 01:32:04;;;;;;;102.37;33.87;;;-2.40;99.90;;;;;;5007376;28;20280;-88
2022/12/13 01:34:30;;;;;;;106.68;39.30;;;-2.50;99.90;;;;;;5008006;28;20243;-87
2022/12/13 01:36:56;;;;;;;105.80;37.97;;;-2.40;99.90;;;;;;5008085;28;20165;-88
2022/12/13 01:39:22;;;;;;;103.97;35.50;;;-2.50;99.90;;;;;;5025287;28;20429;-86
2022/12/13 01:41:55;;;;;;;99.78;32.83;;;-2.50;99.90;;;;;;5025693;28;20181;-87
2022/12/13 01:45:09;;;;;;;103.43;38.15;;;-2.50;99.90;;;;;;5025516;28;20241;-87
2022/12/13 01:48:15;;;;;;;104.32;33.22;;;-2.50;99.90;;;;;;4999224;28;20233;-86
2022/12/13 01:50:46;;;;;;;100.32;31.65;;;-2.50;99.90;;;;;;4948874;29;20278;-86
2022/12/13 01:53:17;;;;;;;98.53;31.98;;;-2.60;99.90;;;;;;4948199;29;20172;-87
2022/12/13 01:55:45;;;;;;;102.57;36.95;;;-2.50;99.90;;;;;;4997896;28;20181;-86
2022/12/13 01:58:12;;;;;;;109.05;35.33;;;-2.60;99.90;;;;;;5023484;28;20507;-88
2022/12/13 02:00:39;;;;;;;102.57;38.38;;;-2.50;99.90;;;;;;5005725;28;20189;-88
2022/12/13 02:03:05;;;;;;;101.28;37.67;;;-2.50;99.90;;;;;;5006406;28;20197;-88
2022/12/13 02:05:43;;;;;;;103.38;41.45;;;-2.50;99.90;;;;;;5023709;28;20173;-87
2022/12/13 02:08:12;;;;;;;100.78;34.15;;;-2.50;99.90;;;;;;5006538;28;20162;-88
2022/12/13 02:10:38;;;;;;;96.13;36.42;;;-2.50;99.90;;;;;;5023576;28;20182;-86
2022/12/13 02:13:04;;;;;;;99.68;38.80;;;-2.50;99.90;;;;;;5023650;28;20208;-87
2022/12/13 02:16:00;;;;;;;110.17;41.93;;;-2.50;99.90;;;;;;5005625;28;20169;-87
2022/12/13 02:18:44;;;;;;;99.90;34.15;;;-2.50;99.90;;;;;;5022581;28;20409;-88
2022/12/13 02:21:20;;;;;;;96.10;31.83;;;-2.60;99.90;;;;;;5021987;28;20200;-88
2022/12/13 02:24:24;;;;;;;101.38;38.75;;;-2.60;99.90;;;;;;5023248;28;20507;-88
2022/12/13 02:27:08;;;;;;;103.20;35.17;;;-2.60;99.90;;;;;;5002128;28;20177;-87
2022/12/13 02:29:52;;;;;;;102.35;32.13;;;-2.60;99.90;;;;;;5004362;28;20557;-88
2022/12/13 02:32:28;;;;;;;109.13;33.10;;;-2.60;99.90;;;;;;5022262;28;20229;-85
2022/12/13 02:35:08;;;;;;;108.07;37.92;;;-2.70;99.90;;;;;;5021772;28;20606;-88
2022/12/13 02:38:09;;;;;;;108.15;35.42;;;-2.70;99.90;;;;;;5003758;28;20185;-88
2022/12/13 02:40:51;;;;;;;106.07;34.22;;;-2.70;99.90;;;;;;5022504;28;20245;-88
2022/12/13 02:43:45;;;;;;;96.03;31.52;;;-2.70;99.90;;;;;;5005401;28;20212;-86
2022/12/13 02:46:14;;;;;;;99.65;27.05;;;-2.70;99.90;;;;;;5021837;28;20655;-86
2022/12/13 02:48:41;;;;;;;100.60;33.65;;;-2.70;99.90;;;;;;5006091;28;20166;-88
2022/12/13 02:51:11;;;;;;;102.38;36.03;;;-2.70;99.90;;;;;;5023349;28;20192;-88
2022/12/13 02:53:48;;;;;;;102.35;36.47;;;-2.60;99.90;;;;;;5005402;28;20170;-87
2022/12/13 02:56:14;;;;;;;103.15;35.83;;;-2.50;99.90;;;;;;5004608;28;20177;-88
2022/12/13 02:58:48;;;;;;;110.18;42.05;;;-2.60;99.90;;;;;;5022046;28;20169;-88
2022/12/13 03:01:19;;;;;;;103.15;35.42;;;-2.60;99.90;;;;;;5003704;28;20328;-88
2022/12/13 03:04:18;;;;;;;102.90;36.40;;;-2.70;99.90;;;;;;5003971;28;20189;-88
2022/12/13 03:07:08;;;;;;;104.32;33.53;;;-2.70;99.90;;;;;;4983215;28;20178;-88
2022/12/13 03:09:54;;;;;;;107.28;33.70;;;-2.70;99.90;;;;;;5006581;28;20169;-87
2022/12/13 03:15:35;;;;;;;97.30;33.17;;;-2.80;99.90;;;;;;5028403;28;20265;-87
2022/12/13 03:18:27;;;;;;;102.35;32.45;;;-2.80;99.90;;;;;;5028567;28;20253;-87
2022/12/13 03:20:55;;;;;;;102.57;30.23;;;-2.80;99.90;;;;;;5004773;28;20194;-85
2022/12/13 03:23:22;;;;;;;102.65;38.78;;;-2.80;99.90;;;;;;5027973;28;20193;-87
2022/12/13 03:25:50;;;;;;;102.63;37.20;;;-2.80;99.90;;;;;;5028641;28;20157;-87
2022/12/13 03:28:17;;;;;;;102.97;40.08;;;-2.90;99.90;;;;;;5028134;28;20185;-86
2022/12/13 03:30:42;;;;;;;101.35;35.85;;;-2.90;99.90;;;;;;5028691;28;20261;-86
2022/12/13 03:33:08;;;;;;;101.90;34.20;;;-2.90;99.90;;;;;;5028020;28;20533;-87
2022/12/13 03:35:35;;;;;;;112.17;40.57;;;-2.90;99.90;;;;;;5027846;28;20172;-87
2022/12/13 03:38:01;;;;;;;100.05;36.17;;;-2.90;99.90;;;;;;5028033;28;20409;-87
2022/12/13 03:40:29;;;;;;;105.53;40.63;;;-2.90;99.90;;;;;;5010025;28;20190;-87
2022/12/13 03:42:55;;;;;;;98.20;36.88;;;-2.90;99.90;;;;;;5025680;28;20188;-88
2022/12/13 03:45:21;;;;;;;102.23;39.93;;;-2.90;99.90;;;;;;5027891;28;20701;-88
2022/12/13 03:47:46;;;;;;;101.78;38.88;;;-2.90;99.90;;;;;;5010314;28;20444;-87
2022/12/13 03:50:12;;;;;;;102.10;38.87;;;-2.90;99.90;;;;;;5028238;28;20185;-88
2022/12/13 03:52:38;;;;;;;103.80;37.40;;;-3.00;99.90;;;;;;5027534;28;20716;-87
2022/12/13 03:55:04;;;;;;;105.70;38.33;;;-3.00;99.90;;;;;;5027140;28;20409;-87
2022/12/13 03:57:30;;;;;;;107.05;43.05;;;-3.00;99.90;;;;;;5010922;28;20165;-88
2022/12/13 03:59:56;;;;;;;101.97;39.10;;;-3.00;99.90;;;;;;5027454;28;20195;-88
2022/12/13 04:02:22;;;;;;;100.72;39.58;;;-3.00;99.90;;;;;;5009912;28;20166;-88
2022/12/13 04:04:47;;;;;;;99.50;40.07;;;-3.10;99.90;;;;;;5009224;28;20162;-87
2022/12/13 04:07:13;;;;;;;104.43;37.43;;;-3.10;99.90;;;;;;5026595;28;20893;-87
2022/12/13 04:09:39;;;;;;;102.33;36.50;;;-3.10;99.90;;;;;;5008725;28;20169;-88
2022/12/13 04:14:49;;;;;;;102.72;36.30;;;-3.20;99.90;;;;;;5025514;28;20192;-88
2022/12/13 04:17:15;;;;;;;99.77;33.13;;;-3.20;99.90;;;;;;5025561;28;20233;-88
2022/12/13 04:19:40;;;;;;;108.03;37.43;;;-3.10;99.90;;;;;;5025460;28;20649;-88
2022/12/13 04:22:06;;;;;;;99.50;34.27;;;-3.10;99.90;;;;;;5024650;28;20193;-87
2022/12/13 04:24:32;;;;;;;102.60;30.67;;;-3.10;99.90;;;;;;5024120;28;20200;-87
2022/12/13 04:27:01;;;;;;;101.33;32.20;;;-3.10;99.90;;;;;;5025300;28;20186;-88
2022/12/13 04:29:27;;;;;;;102.55;35.10;;;-3.10;99.90;;;;;;5025577;28;20168;-88
2022/12/13 04:31:53;;;;;;;95.22;31.05;;;-3.00;99.90;;;;;;5025560;28;20181;-87
2022/12/13 04:34:18;;;;;;;105.27;30.73;;;-3.10;99.90;;;;;;5025813;28;20174;-88
2022/12/13 04:36:44;;;;;;;108.57;36.07;;;-3.00;99.90;;;;;;5023298;28;20177;-87
2022/12/13 04:39:09;;;;;;;108.90;33.77;;;-3.00;99.90;;;;;;5024563;28;20177;-87
2022/12/13 04:41:37;;;;;;;101.30;35.33;;;-3.00;99.90;;;;;;5024390;28;20194;-87
2022/12/13 04:44:04;;;;;;;102.90;30.75;;;-3.00;99.90;;;;;;5005981;28;20201;-87
2022/12/13 04:46:30;;;;;;;109.85;34.35;;;-3.00;99.90;;;;;;5006108;28;20177;-87
2022/12/13 04:48:56;;;;;;;105.50;37.07;;;-3.00;99.90;;;;;;5007293;28;20165;-87
2022/12/13 04:51:22;;;;;;;99.40;36.23;;;-3.00;99.90;;;;;;5023622;28;20424;-86
2022/12/13 04:53:47;;;;;;;108.85;35.50;;;-3.10;99.90;;;;;;5006146;28;20197;-86
2022/12/13 04:56:13;;;;;;;108.17;36.40;;;-3.00;99.90;;;;;;5023369;28;20166;-86
2022/12/13 04:58:40;;;;;;;98.87;32.37;;;-3.00;99.90;;;;;;5006841;28;20209;-86
2022/12/13 05:01:08;;;;;;;100.90;30.35;;;-2.90;99.90;;;;;;5006129;28;20186;-86
2022/12/13 05:03:37;;;;;;;104.25;35.20;;;-3.00;99.90;;;;;;5023354;28;20549;-87
2022/12/13 05:06:08;;;;;;;111.45;33.90;;;-3.00;99.90;;;;;;5005453;28;20169;-87
2022/12/13 05:08:34;;;;;;;104.78;33.03;;;-2.90;99.90;;;;;;5023373;28;20177;-86
2022/12/13 05:11:00;;;;;;;95.05;32.13;;;-3.00;99.90;;;;;;5022838;28;20197;-87
2022/12/13 05:13:26;;;;;;;101.53;34.63;;;-3.00;99.90;;;;;;5086005;23;20221;-84
2022/12/13 05:16:00;;;;;;;106.00;33.20;;;-3.00;99.90;;;;;;5021276;28;20161;-84
2022/12/13 05:18:27;;;;;;;101.10;29.88;;;-3.00;99.90;;;;;;5020957;28;20763;-84
2022/12/13 05:20:53;;;;;;;108.15;34.10;;;-3.00;99.90;;;;;;5021015;28;20181;-84
2022/12/13 05:23:23;;;;;;;98.45;31.67;;;-3.00;99.90;;;;;;5020108;28;20201;-84
2022/12/13 05:25:50;;;;;;;107.07;31.13;;;-3.00;99.90;;;;;;5020447;28;20169;-84
2022/12/13 05:28:16;;;;;;;100.55;32.25;;;-3.00;99.90;;;;;;5020814;28;20170;-84
2022/12/13 05:30:43;;;;;;;103.43;31.97;;;-2.90;99.90;;;;;;5019867;28;20197;-84
2022/12/13 05:33:10;;;;;;;97.75;31.63;;;-2.90;99.90;;;;;;5019475;28;20166;-84
2022/12/13 05:35:36;;;;;;;101.63;35.78;;;-2.80;99.90;;;;;;5018806;28;20193;-84
2022/12/13 05:38:02;;;;;;;100.55;30.50;;;-2.80;99.90;;;;;;5021028;28;20162;-84
2022/12/13 05:40:31;;;;;;;98.93;27.60;;;-2.80;99.90;;;;;;5019650;28;20196;-84
2022/12/13 05:42:57;;;;;;;101.95;32.67;;;-2.80;99.90;;;;;;5018682;28;20190;-84
2022/12/13 05:45:23;;;;;;;99.15;28.25;;;-2.80;99.90;;;;;;5020868;28;20166;-84
2022/12/13 05:47:49;;;;;;;97.45;27.58;;;-2.60;99.90;;;;;;5020890;28;20166;-84
2022/12/13 05:50:16;;;;;;;99.67;33.57;;;-2.70;99.90;;;;;;5020639;28;20182;-84
2022/12/13 05:52:42;;;;;;;97.18;26.17;;;-2.60;99.90;;;;;;5020360;28;20189;-84
2022/12/13 05:55:09;;;;;;;98.40;33.78;;;-2.70;99.90;;;;;;5021089;28;20158;-84
2022/12/13 05:57:35;;;;;;;104.30;32.17;;;-2.70;99.90;;;;;;5020444;28;20229;-84
2022/12/13 06:00:01;;;;;;;96.07;28.50;;;-2.70;99.90;;;;;;5019961;28;20170;-84
2022/12/13 06:02:27;;;;;;;97.30;28.80;;;-2.80;99.90;;;;;;5020297;28;20172;-84
2022/12/13 06:04:52;;;;;;;100.93;27.45;;;-2.90;99.90;;;;;;5019780;28;20400;-84
2022/12/13 06:07:18;;;;;;;94.50;28.73;;;-2.90;99.90;;;;;;5019784;28;20158;-84
2022/12/13 06:09:44;;;;;;;94.93;29.83;;;-3.00;99.90;;;;;;5020290;28;20641;-84
2022/12/13 06:12:10;;;;;;;95.93;29.67;;;-3.10;99.90;;;;;;5019532;28;20182;-84
2022/12/13 06:14:36;;;;;;;98.17;31.23;;;-3.20;99.90;;;;;;5018510;28;20189;-84
2022/12/13 06:17:02;;;;;;;106.47;31.77;;;-3.20;99.90;;;;;;5018460;28;20176;-84
2022/12/13 06:19:27;;;;;;;97.55;29.90;;;-3.20;99.90;;;;;;5017397;28;20844;-84
2022/12/13 06:21:54;;;;;;;100.77;31.17;;;-3.20;99.90;;;;;;5020117;28;20185;-84
2022/12/13 06:24:21;;;;;;;99.80;29.90;;;-3.30;99.90;;;;;;5020930;28;20189;-84
2022/12/13 06:26:48;;;;;;;101.15;30.73;;;-3.30;99.90;;;;;;5019957;28;20630;-84
2022/12/13 06:29:15;;;;;;;102.70;32.65;;;-3.40;99.90;;;;;;5020700;28;20328;-84
2022/12/13 06:31:40;;;;;;;103.78;28.00;;;-3.40;99.90;;;;;;5020270;28;20186;-84
2022/12/13 06:34:06;;;;;;;103.27;30.20;;;-3.50;99.90;;;;;;5020589;28;20193;-84
2022/12/13 06:36:32;;;;;;;97.97;30.70;;;-3.50;99.90;;;;;;5021687;28;20188;-84
2022/12/13 06:39:04;;;;;;;102.63;31.53;;;-3.50;99.90;;;;;;5021586;28;20199;-84
2022/12/13 06:41:30;;;;;;;93.28;29.73;;;-3.50;99.90;;;;;;5021130;28;20190;-84
2022/12/13 06:43:55;;;;;;;100.22;26.92;;;-3.50;99.90;;;;;;5020927;28;20200;-84
2022/12/13 06:46:21;;;;;;;98.03;31.43;;;-3.60;99.90;;;;;;5019438;28;20194;-84
2022/12/13 06:48:47;;;;;;;105.60;30.60;;;-3.60;99.90;;;;;;5019441;28;20176;-84
2022/12/13 06:51:13;;;;;;;100.05;30.48;;;-3.60;99.90;;;;;;5020138;28;20214;-84
2022/12/13 06:53:39;;;;;;;100.17;29.17;;;-3.60;99.90;;;;;;5021809;28;20216;-84
2022/12/13 06:56:08;;;;;;;102.82;34.17;;;-3.60;99.90;;;;;;5020004;28;20416;-84
2022/12/13 06:58:34;;;;;;;96.13;28.20;;;-3.60;99.90;;;;;;5021797;28;20228;-84
2022/12/13 07:01:19;;;;;;;103.38;31.40;;;-3.60;99.90;;;;;;5020890;28;20194;-84
2022/12/13 07:03:44;;;;;;;94.90;30.10;;;-3.60;99.90;;;;;;5019845;28;20189;-84
2022/12/13 07:06:19;;;;;;;97.63;29.73;;;-3.60;99.90;;;;;;5022552;28;20165;-83
2022/12/13 07:08:49;;;;;;;101.68;28.67;;;-3.60;99.90;;;;;;5019485;28;20167;-84
2022/12/13 07:11:21;;;;;;;97.32;27.60;;;-3.60;99.90;;;;;;5020058;28;20217;-84
2022/12/13 07:13:47;;;;;;;97.28;32.28;;;-3.60;99.90;;;;;;5019833;28;20201;-84
2022/12/13 07:16:14;;;;;;;95.73;28.43;;;-3.60;99.90;;;;;;5017494;28;20170;-84
2022/12/13 07:18:40;;;;;;;96.07;27.00;;;-3.60;99.90;;;;;;5018989;28;20193;-84
2022/12/13 07:21:07;;;;;;;95.07;32.80;;;-3.60;99.90;;;;;;5019827;28;20580;-84
2022/12/13 07:23:37;;;;;;;94.25;27.50;;;-3.70;99.90;;;;;;5018887;28;20193;-84
2022/12/13 07:26:04;;;;;;;90.35;25.88;;;-3.60;99.90;;;;;;5019256;28;20186;-84
2022/12/13 07:28:35;;;;;;;93.38;27.55;;;-3.70;99.90;;;;;;5018359;28;20229;-84
2022/12/13 07:31:02;;;;;;;99.40;26.88;;;-3.70;99.90;;;;;;5020102;28;20186;-84
2022/12/13 07:33:28;;;;;;;98.15;30.60;;;-3.70;99.90;;;;;;5019918;28;20209;-84
2022/12/13 07:36:15;;;;;;;96.20;25.92;;;-3.70;99.90;;;;;;5019850;28;20169;-85
2022/12/13 07:38:41;;;;;;;94.15;26.05;;;-3.60;99.90;;;;;;5019661;28;20626;-85
2022/12/13 07:41:08;;;;;;;98.03;24.55;;;-3.70;99.90;;;;;;5019560;28;20209;-84
2022/12/13 07:43:34;;;;;;;98.63;27.92;;;-3.60;99.90;;;;;;5018248;28;20205;-84
2022/12/13 07:46:04;;;;;;;97.38;28.00;;;-3.70;99.90;;;;;;5019400;28;20190;-85
2022/12/13 07:48:30;;;;;;;93.07;27.73;;;-3.70;99.90;;;;;;5018194;28;20170;-85
2022/12/13 07:51:05;;;;;;;101.67;30.23;;;-3.70;99.90;;;;;;5017260;28;20253;-85
2022/12/13 07:53:32;;;;;;;98.00;29.20;;;-3.70;99.90;;;;;;5019583;28;21021;-85
2022/12/13 07:56:02;;;;;;;93.78;24.83;;;-3.70;99.90;;;;;;5017974;28;20546;-84
2022/12/13 07:58:32;;;;;;;98.13;27.42;;;-3.70;99.90;;;;;;5019476;28;20161;-84
2022/12/13 08:01:08;;;;;;;95.65;26.80;;;-3.70;99.90;;;;;;5022622;28;20194;-85
2022/12/13 08:03:35;;;;;;;91.72;26.17;;;-3.60;99.90;;;;;;5021232;28;20612;-85
2022/12/13 08:06:05;;;;;;;92.07;25.13;;;-3.60;99.90;;;;;;5021871;28;20166;-85
2022/12/13 08:08:31;;;;;;;97.97;27.88;;;-3.60;99.90;;;;;;5022627;28;20166;-84
2022/12/13 08:11:02;;;;;;;101.40;29.77;;;-3.60;99.90;;;;;;5022326;28;20719;-84
2022/12/13 08:13:28;;;;;;;95.07;27.52;;;-3.60;99.90;;;;;;5022103;28;20244;-84
2022/12/13 08:16:01;;;;;;;98.67;30.30;;;-3.60;99.90;;;;;;5020378;28;20174;-84
2022/12/13 08:18:30;;;;;;;96.18;29.48;;;-3.50;99.90;;;;;;5021884;28;20197;-84
2022/12/13 08:21:00;;;;;;;104.22;32.50;;;-3.50;99.90;;;;;;5022608;28;20561;-85
2022/12/13 08:23:26;;;;;;;100.43;32.28;;;-3.40;99.90;;;;;;5021649;28;20200;-84
2022/12/13 08:25:53;;;;;;;101.23;32.47;;;-3.40;99.90;;;;;;5019903;28;20162;-84
2022/12/13 08:28:21;;;;;;;98.50;28.98;;;-3.40;99.90;;;;;;5020342;28;20765;-84
2022/12/13 08:30:47;;;;;;;97.82;31.63;;;-3.40;99.90;;;;;;5021174;28;20186;-84
2022/12/13 08:33:14;;;;;;;93.93;29.30;;;-3.30;99.90;;;;;;5020951;28;20249;-84
2022/12/13 08:35:39;;;;;;;98.82;30.25;;;-3.20;99.90;;;;;;5021156;28;20166;-84
2022/12/13 08:38:05;;;;;;;101.53;32.67;;;-3.10;99.90;;;;;;5020901;28;20219;-84
2022/12/13 08:40:31;;;;;;;92.37;29.10;;;-3.10;99.90;;;;;;5019962;28;20280;-84
2022/12/13 08:42:57;;;;;;;93.88;29.67;;;-3.10;99.90;;;;;;5021366;28;20260;-84
2022/12/13 08:45:23;;;;;;;104.23;32.07;;;-3.10;99.90;;;;;;5019589;28;20248;-84
2022/12/13 08:47:49;;;;;;;96.13;29.30;;;-3.10;99.90;;;;;;5020278;28;20170;-84
2022/12/13 08:50:15;;;;;;;104.77;32.13;;;-3.10;99.90;;;;;;5022949;28;20209;-84
2022/12/13 08:52:43;;;;;;;97.95;32.45;;;-3.10;99.90;;;;;;5022215;28;20495;-84
2022/12/13 08:55:13;;;;;;;96.72;34.40;;;-3.10;99.90;;;;;;5022144;28;20158;-84
2022/12/13 08:57:40;;;;;;;99.65;33.40;;;-3.00;99.90;;;;;;5022586;28;20177;-84
2022/12/13 09:00:08;;;;;;;108.40;36.50;;;-3.00;99.90;;;;;;5021000;28;20165;-84
2022/12/13 09:02:33;;;;;;;97.25;31.85;;;-3.00;99.90;;;;;;5021689;28;20176;-84
2022/12/13 09:04:59;;;;;;;105.77;31.40;;;-3.00;99.90;;;;;;5019138;28;20600;-84
2022/12/13 09:07:26;;;;;;;96.30;33.13;;;-2.90;99.90;;;;;;5018733;28;20174;-84
2022/12/13 09:09:51;;;;;;;93.63;28.33;;;-2.90;99.90;;;;;;5018885;28;20188;-85
2022/12/13 09:12:18;;;;;;;94.73;31.43;;;-2.90;99.90;;;;;;5018657;28;20673;-84
2022/12/13 09:14:45;;;;;;;91.97;27.65;;;-2.90;99.90;;;;;;5017557;28;20190;-84
2022/12/13 09:17:11;;;;;;;95.25;31.10;;;-2.90;99.90;;;;;;5019094;28;20196;-84
2022/12/13 09:19:37;;;;;;;99.03;28.23;;;-2.80;99.90;;;;;;5016947;28;20177;-85
2022/12/13 09:22:03;;;;;;;95.07;25.90;;;-2.80;99.90;;;;;;5019452;28;20185;-84
2022/12/13 09:24:29;;;;;;;100.70;32.42;;;-2.70;99.90;;;;;;5017988;28;20472;-84
2022/12/13 09:26:55;;;;;;;95.10;31.63;;;-2.70;99.90;;;;;;5019169;28;20646;-84
2022/12/13 09:29:20;;;;;;;94.70;28.70;;;-2.60;99.90;;;;;;5017539;28;20995;-84
2022/12/13 09:31:46;;;;;;;95.33;30.23;;;-2.60;99.90;;;;;;5016797;28;20196;-84
2022/12/13 09:34:12;;;;;;;102.53;30.97;;;-2.60;99.90;;;;;;5016379;28;20201;-85
2022/12/13 09:36:37;;;;;;;95.70;29.53;;;-2.60;99.90;;;;;;5016763;28;20181;-85
2022/12/13 09:39:03;;;;;;;95.23;32.23;;;-2.40;99.90;;;;;;5016170;28;20212;-85
2022/12/13 09:41:36;;;;;;;100.05;30.63;;;-2.40;99.90;;;;;;5016922;28;20264;-85
2022/12/13 09:44:09;;;;;;;96.35;31.75;;;-2.40;99.90;;;;;;5015861;28;20261;-84
2022/12/13 09:46:39;;;;;;;98.78;31.38;;;-2.40;99.90;;;;;;5016951;28;20153;-85
2022/12/13 09:49:16;;;;;;;98.20;29.80;;;-2.30;99.90;;;;;;5019432;28;20169;-83
2022/12/13 09:51:53;;;;;;;93.88;30.98;;;-2.30;99.90;;;;;;5022620;28;20285;-84
2022/12/13 09:54:22;;;;;;;96.30;30.50;;;-2.20;99.90;;;;;;5022366;28;20229;-83
2022/12/13 09:56:52;;;;;;;89.75;29.95;;;-2.20;99.90;;;;;;5020423;28;20170;-84
2022/12/13 09:59:25;;;;;;;94.50;36.95;;;-2.20;99.90;;;;;;5023052;28;20266;-84
2022/12/13 10:01:51;;;;;;;95.40;31.00;;;-2.20;99.90;;;;;;5022992;28;20209;-84
2022/12/13 10:04:17;;;;;;;92.47;32.77;;;-2.10;99.90;;;;;;5021864;28;20256;-84
2022/12/13 10:06:43;;;;;;;90.85;25.98;;;-2.00;99.90;;;;;;5022200;28;20277;-84
2022/12/13 10:09:13;;;;;;;88.23;29.50;;;-2.00;99.90;;;;;;5021096;28;20165;-83
2022/12/13 10:11:52;;;;;;;99.88;30.75;;;-1.90;99.90;;;;;;5021661;28;20209;-84
2022/12/13 10:14:30;;;;;;;95.22;37.88;;;-1.80;99.90;;;;;;5017253;28;20185;-84
2022/12/13 10:17:01;;;;;;;92.75;32.00;;;-1.80;99.90;;;;;;5019286;28;20178;-84
2022/12/13 10:19:39;;;;;;;94.82;33.58;;;-1.80;99.90;;;;;;5020314;28;20260;-84
2022/12/13 10:22:10;;;;;;;94.95;35.85;;;-1.80;99.90;;;;;;5019285;28;20243;-84
2022/12/13 10:24:51;;;;;;;93.95;30.35;;;-1.80;99.90;;;;;;5018202;28;20285;-84
2022/12/13 10:27:24;;;;;;;99.88;31.90;;;-1.70;99.90;;;;;;5016302;28;20253;-85
2022/12/13 10:30:01;;;;;;;94.63;33.55;;;-1.60;99.90;;;;;;5016197;28;20257;-83
2022/12/13 10:32:27;;;;;;;93.15;33.97;;;-1.50;99.90;;;;;;5019177;28;20157;-85
2022/12/13 10:34:54;;;;;;;99.53;44.92;;;-1.40;99.90;;;;;;5017776;28;20181;-85
2022/12/13 10:37:22;;;;;;;97.80;31.88;;;-1.40;99.90;;;;;;5015208;28;20166;-85
2022/12/13 10:39:49;;;;;;;96.85;40.33;;;-1.40;99.90;;;;;;5016065;28;20181;-84
2022/12/13 10:42:18;;;;;;;97.80;43.75;;;-1.40;99.90;;;;;;5015264;28;20162;-85
2022/12/13 10:44:44;;;;;;;98.25;39.00;;;-1.30;99.90;;;;;;5013580;28;20336;-85
2022/12/13 10:47:23;;;;;;;98.80;39.70;;;-1.20;99.90;;;;;;5014657;28;20633;-85
2022/12/13 10:49:58;;;;;;;98.50;42.65;;;-1.20;99.90;;;;;;5016153;28;20237;-84
2022/12/13 10:52:33;;;;;;;101.45;34.70;;;-1.30;99.90;;;;;;5015538;28;20169;-85
2022/12/13 10:55:03;;;;;;;95.20;36.22;;;-1.20;99.90;;;;;;5017009;28;20174;-85
2022/12/13 10:57:29;;;;;;;103.07;40.25;;;-1.20;99.90;;;;;;5017288;28;20241;-85
2022/12/13 10:59:55;;;;;;;98.97;36.67;;;-1.10;99.90;;;;;;5015641;28;20541;-85
2022/12/13 11:02:33;;;;;;;92.97;43.33;;;-1.10;99.90;;;;;;5017830;28;20173;-85
2022/12/13 11:05:19;;;;;;;99.43;48.88;;;-1.10;99.90;;;;;;5017052;28;20180;-85
2022/12/13 11:07:45;;;;;;;95.43;34.72;;;-1.10;99.90;;;;;;5017676;28;20257;-85
2022/12/13 11:10:26;;;;;;;97.75;32.85;;;-1.00;99.90;;;;;;5019038;28;20277;-85
2022/12/13 11:15:29;;;;;;;93.50;24.77;;;-0.90;99.90;;;;;;5149502;23;20312;-87
2022/12/13 11:17:59;;;;;;;88.57;22.00;;;-0.80;99.90;;;;;;5021410;28;20146;-87
2022/12/13 11:20:36;;;;;;;95.63;24.23;;;-0.80;99.90;;;;;;5004122;28;20193;-87
2022/12/13 11:23:18;;;;;;;90.97;20.75;;;-0.80;99.90;;;;;;5004355;28;20243;-86
2022/12/13 11:25:44;;;;;;;93.28;20.85;;;-0.70;99.90;;;;;;5004252;28;20197;-87
2022/12/13 11:28:18;;;;;;;98.28;23.20;;;-0.80;99.90;;;;;;5020639;28;20178;-87
2022/12/13 11:31:02;;;;;;;91.43;20.08;;;-0.80;99.90;;;;;;5019428;28;20192;-87
2022/12/13 11:34:01;;;;;;;95.40;19.50;;;-0.80;99.90;;;;;;5022389;28;20154;-87
2022/12/13 11:36:48;;;;;;;91.78;22.73;;;-0.80;99.90;;;;;;5024060;28;20162;-87
2022/12/13 11:39:29;;;;;;;82.57;16.67;;;-0.70;99.90;;;;;;5005805;28;20165;-86
2022/12/13 11:42:07;;;;;;;90.68;21.17;;;-0.80;99.90;;;;;;5006203;28;20566;-86
2022/12/13 11:45:00;;;;;;;89.88;18.50;;;-0.80;99.90;;;;;;5005680;28;20224;-85
2022/12/13 11:47:48;;;;;;;98.05;22.65;;;-0.70;99.90;;;;;;5006470;28;20162;-87
2022/12/13 11:50:22;;;;;;;90.40;21.52;;;-0.60;99.90;;;;;;5025150;28;20221;-87
2022/12/13 11:52:52;;;;;;;89.47;20.38;;;-0.70;99.90;;;;;;5027859;28;20154;-88
2022/12/13 11:55:41;;;;;;;89.57;21.73;;;-0.80;99.90;;;;;;5027849;28;20306;-88
2022/12/13 11:58:32;;;;;;;92.65;21.33;;;-0.70;99.90;;;;;;5028704;28;20150;-87
2022/12/13 12:01:08;;;;;;;90.25;19.40;;;-0.70;99.90;;;;;;5011413;28;20197;-88
2022/12/13 12:03:45;;;;;;;92.15;19.83;;;-0.70;99.90;;;;;;5010715;28;20189;-86
2022/12/13 12:06:27;;;;;;;94.18;19.80;;;-0.60;99.90;;;;;;5011398;28;20229;-86
2022/12/13 12:08:58;;;;;;;90.45;18.48;;;-0.60;99.90;;;;;;5027555;28;20154;-86
2022/12/13 12:11:38;;;;;;;98.18;20.80;;;-0.50;99.90;;;;;;5028000;28;20189;-87
2022/12/13 12:14:10;;;;;;;92.55;18.25;;;-0.50;99.90;;;;;;5010989;28;20189;-87
2022/12/13 12:16:52;;;;;;;88.03;16.85;;;-0.50;99.90;;;;;;5011228;28;20170;-86
2022/12/13 12:19:25;;;;;;;89.15;18.67;;;-0.40;99.90;;;;;;5027712;28;20216;-86
2022/12/13 12:22:24;;;;;;;89.00;20.23;;;-0.50;99.90;;;;;;5010285;28;20186;-86
2022/12/13 12:24:56;;;;;;;98.97;19.40;;;-0.40;99.90;;;;;;5011191;28;20323;-87
2022/12/13 12:27:35;;;;;;;88.68;21.25;;;-0.40;99.90;;;;;;5028977;28;20292;-86
2022/12/13 12:30:21;;;;;;;89.13;20.35;;;-0.40;99.90;;;;;;5011408;28;20154;-86
2022/12/13 12:32:53;;;;;;;94.10;18.92;;;-0.40;99.90;;;;;;5013282;28;20176;-87
2022/12/13 12:35:51;;;;;;;93.85;19.17;;;-0.50;99.90;;;;;;5031329;28;20146;-86
2022/12/13 12:38:36;;;;;;;89.55;17.67;;;-0.50;99.90;;;;;;5030763;28;20154;-86
2022/12/13 12:41:02;;;;;;;80.65;14.20;;;-0.40;99.90;;;;;;5013216;28;20190;-87
2022/12/13 12:43:39;;;;;;;86.33;16.87;;;-0.50;99.90;;;;;;5030368;28;20236;-86
2022/12/13 12:46:13;;;;;;;93.00;19.42;;;-0.50;99.90;;;;;;5030171;28;20154;-87
2022/12/13 12:49:24;;;;;;;92.80;18.98;;;-0.50;99.90;;;;;;5013068;28;20165;-87